Time,TemperatureF,DewpointF,PressureIn,WindDirection,WindDirectionDegrees,WindSpeedMPH,WindSpeedGustMPH,Humidity,HourlyPrecipIn,Conditions,Clouds,dailyrainin,SoftwareType,DateUTC
2013-03-18 00:00:00,67.4,58.1,29.99,ESE,112,1.0,6.0,72,0.00,,---,0.00,VWS V14.01,2013-03-18 10:00:00,
2013-03-18 00:30:00,67.4,58.1,29.99,ESE,112,3.0,10.0,72,0.00,,---,0.00,VWS V14.01,2013-03-18 10:30:00,
2013-03-18 01:00:00,67.6,58.3,29.98,ESE,112,3.0,9.0,72,0.00,,---,0.00,VWS V14.01,2013-03-18 11:00:00,
2013-03-18 01:30:00,67.3,57.2,29.98,SE,135,3.0,8.0,70,0.00,,---,0.00,VWS V14.01,2013-03-18 11:30:00,
2013-03-18 02:00:00,67.0,56.1,29.97,ESE,112,2.0,7.0,68,0.00,,---,0.00,VWS V14.01,2013-03-18 12:00:00,
2013-03-18 02:30:00,67.1,56.6,29.97,ESE,112,2.0,7.0,69,0.00,,---,0.00,VWS V14.01,2013-03-18 12:30:00,
2013-03-18 03:00:00,67.3,56.8,29.97,ESE,112,2.0,7.0,69,0.00,,---,0.00,VWS V14.01,2013-03-18 13:00:00,
2013-03-18 03:30:00,68.2,58.0,29.97,East,90,4.0,11.0,70,0.00,,---,0.00,VWS V14.01,2013-03-18 13:30:00,
2013-03-18 04:00:00,68.3,58.2,29.96,East,90,3.0,9.0,70,0.00,,---,0.00,VWS V14.01,2013-03-18 14:00:00,
2013-03-18 04:30:00,68.3,58.2,29.96,East,90,3.0,8.0,70,0.00,,---,0.00,VWS V14.01,2013-03-18 14:30:00,
2013-03-18 05:00:00,67.9,57.8,29.96,East,90,3.0,8.0,70,0.00,,---,0.00,VWS V14.01,2013-03-18 15:00:00,
2013-03-18 05:30:00,67.4,57.7,29.96,East,90,3.0,8.0,71,0.00,,---,0.00,VWS V14.01,2013-03-18 15:30:00,
2013-03-18 06:00:00,67.1,57.8,29.96,East,90,4.0,10.0,72,0.00,,---,0.00,VWS V14.01,2013-03-18 16:00:00,
2013-03-18 06:30:00,66.9,58.0,29.97,East,90,5.0,12.0,73,0.00,,---,0.00,VWS V14.01,2013-03-18 16:30:00,
2013-03-18 07:00:00,67.1,58.2,29.98,East,90,4.0,10.0,73,0.00,,---,0.00,VWS V14.01,2013-03-18 17:00:00,
2013-03-18 07:30:00,67.9,58.9,29.98,East,90,4.0,9.0,73,0.00,,---,0.00,VWS V14.01,2013-03-18 17:30:00,
2013-03-18 07:57:00,71.2,60.5,29.99,NNE,24,1.0,4.0,69,0.00,,---,0.00,VWS V14.01,2013-03-18 17:57:00,
2013-03-18 08:00:00,71.9,60.8,29.99,NNE,22,1.0,5.0,68,0.00,,---,0.00,VWS V14.01,2013-03-18 18:00:00,
2013-03-18 08:30:00,73.1,60.2,30.00,NNW,338,2.0,6.0,64,0.00,,---,0.00,VWS V14.01,2013-03-18 18:30:00,
2013-03-18 09:00:00,74.4,61.0,30.00,NNW,338,3.0,6.0,63,0.00,,---,0.00,VWS V14.01,2013-03-18 19:00:00,
2013-03-18 09:30:00,75.4,62.4,30.00,NW,315,1.0,4.0,64,0.00,,---,0.00,VWS V14.01,2013-03-18 19:30:00,
2013-03-18 10:00:00,75.0,62.9,30.00,WNW,292,3.0,6.0,66,0.00,,---,0.00,VWS V14.01,2013-03-18 20:00:00,
2013-03-18 10:30:00,75.3,63.2,29.98,WNW,292,3.0,5.0,66,0.00,,---,0.00,VWS V14.01,2013-03-18 20:30:00,
2013-03-18 11:00:00,75.7,63.1,29.98,WNW,292,4.0,6.0,65,0.00,,---,0.00,VWS V14.01,2013-03-18 21:00:00,
2013-03-18 11:30:00,76.4,63.3,29.98,West,270,5.0,7.0,64,0.00,,---,0.00,VWS V14.01,2013-03-18 21:30:00,
2013-03-18 12:00:00,77.1,63.5,29.96,West,270,4.0,6.0,63,0.00,,---,0.00,VWS V14.01,2013-03-18 22:00:00,
2013-03-18 12:30:00,77.6,60.2,29.95,West,270,3.0,5.0,55,0.00,,---,0.00,VWS V14.01,2013-03-18 22:30:00,
2013-03-18 13:00:00,77.9,60.5,29.93,West,270,4.0,6.0,55,0.00,,---,0.00,VWS V14.01,2013-03-18 23:00:00,
2013-03-18 13:30:00,78.2,61.7,29.92,West,270,4.0,6.0,57,0.00,,---,0.00,VWS V14.01,2013-03-18 23:30:00,
2013-03-18 14:00:00,78.5,61.0,29.91,WNW,292,4.0,6.0,55,0.00,,---,0.00,VWS V14.01,2013-03-19 00:00:00,
2013-03-18 14:30:00,78.9,58.7,29.90,WNW,292,4.0,7.0,50,0.00,,---,0.00,VWS V14.01,2013-03-19 00:30:00,
2013-03-18 15:00:00,78.4,57.1,29.90,WNW,292,7.0,11.0,48,0.00,,---,0.00,VWS V14.01,2013-03-19 01:00:00,
2013-03-18 15:30:00,78.3,59.2,29.90,WNW,292,8.0,12.0,52,0.00,,---,0.00,VWS V14.01,2013-03-19 01:30:00,
2013-03-18 16:00:00,78.5,60.0,29.90,West,270,6.0,9.0,53,0.00,,---,0.00,VWS V14.01,2013-03-19 02:00:00,
2013-03-18 16:30:00,78.1,59.6,29.91,West,270,5.0,7.0,53,0.00,,---,0.00,VWS V14.01,2013-03-19 02:30:00,
2013-03-18 17:00:00,78.0,59.0,29.91,West,270,4.0,7.0,52,0.00,,---,0.00,VWS V14.01,2013-03-19 03:00:00,
2013-03-18 17:30:00,77.8,57.7,29.91,West,270,2.0,5.0,50,0.00,,---,0.00,VWS V14.01,2013-03-19 03:30:00,
2013-03-18 18:00:00,76.9,58.0,29.92,West,270,1.0,3.0,52,0.00,,---,0.00,VWS V14.01,2013-03-19 04:00:00,
2013-03-18 18:30:00,75.7,56.3,29.93,SW,225,0.0,4.0,51,0.00,,---,0.00,VWS V14.01,2013-03-19 04:30:00,
2013-03-18 19:00:00,74.1,55.4,29.94,SSW,202,0.0,3.0,52,0.00,,---,0.00,VWS V14.01,2013-03-19 05:00:00,
2013-03-18 19:30:00,73.0,55.4,29.94,SSW,202,0.0,2.0,54,0.00,,---,0.00,VWS V14.01,2013-03-19 05:30:00,
2013-03-18 20:00:00,71.1,56.1,29.95,ENE,68,1.0,8.0,59,0.00,,---,0.00,VWS V14.01,2013-03-19 06:00:00,
2013-03-18 20:30:00,70.8,58.5,29.96,ENE,68,2.0,8.0,65,0.00,,---,0.00,VWS V14.01,2013-03-19 06:30:00,
2013-03-18 21:00:00,70.2,57.9,29.97,ESE,112,2.0,7.0,65,0.00,,---,0.00,VWS V14.01,2013-03-19 07:00:00,
2013-03-18 21:30:00,70.0,57.7,29.98,East,90,4.0,10.0,65,0.00,,---,0.00,VWS V14.01,2013-03-19 07:30:00,
2013-03-18 22:00:00,69.5,57.2,29.99,East,90,4.0,10.0,65,0.00,,---,0.00,VWS V14.01,2013-03-19 08:00:00,
2013-03-18 22:30:00,69.1,56.8,29.99,ESE,112,4.0,11.0,65,0.00,,---,0.00,VWS V14.01,2013-03-19 08:30:00,
2013-03-18 23:00:00,68.8,56.6,29.99,ESE,112,5.0,13.0,65,0.00,,---,0.00,VWS V14.01,2013-03-19 09:00:00,
2013-03-18 23:30:00,68.6,55.1,29.98,ESE,112,3.0,9.0,62,0.00,,---,0.00,VWS V14.01,2013-03-19 09:30:00,